TFM - Tactical Decision Aid
ID: Runway Winds: CIG/VIS Threshold:

KLAS - Las Vegas/McCarran I, NV, US

Updated at: 0823 UTC 25 Apr 2019
Latest TAF at: 0520 UTC 25 Apr 2019

TAF Board

Time0756Z 25/09Z 25/10Z 25/11Z 25/12Z 25/13Z 25/14Z 25/15Z 25/16Z 25/17Z 25/18Z 25/19Z 25/20Z 25/21Z>>
Type OBS PRVL PRVL PRVL PRVL PRVL PRVL PRVL PRVL PRVL PRVL PRVL PRVL PRVL
VIS 10 >6 >6 >6 >6 >6 >6 >6 >6 >6 >6 >6 >6 >6
CIG -- -- -- -- -- -- -- -- -- -- -- -- -- --
Cover CLR FEW FEW FEW FEW FEW FEW FEW FEW FEW FEW FEW FEW FEW
FltCat VFR VFR VFR VFR VFR VFR VFR VFR VFR VFR VFR VFR VFR VFR
WX -- -- -- -- -- -- -- -- -- -- -- -- -- --
WDir 210 220 220 220 220 220 220 VRB VRB VRB VRB VRB VRB VRB
WSpd 4 6 6 6 6 6 6 5 5 5 5 5 5 5
WGst -- -- -- -- -- -- -- -- -- -- -- -- -- --

TDA Impact Legend

  None Marginal Slight Moderate High
Visibility (sm) >5 3≤X≤5 1≤X<3 0.5≤X<1 <0.5
Ceiling (100 ft) >30 10≤X≤30 4≤X<10 2≤X<4 <2
Wind Speed (kt) <15 15≤X<25 25≤X<30 ≥30
Wind Gust (kt) <15 15≤X<25 25≤X<35 ≥35
Weather No Wx Reported VCTS -TS,-FZRA TS,FZRA +TS,+FZRA
TAF
KLAS 250520Z 2506/2612 22006KT P6SM FEW250
  FM251500 VRB05KT P6SM FEW250
  FM260000 22011G18KT P6SM FEW100 FEW250
  FM260500 22011KT P6SM FEW250


METAR
KLAS 250756Z 21004KT 10SM CLR 24/02 A2989 RMK AO2 SLP098 T02390022 403280183
KLAS 250656Z 23005KT 10SM CLR 26/02 A2989 RMK AO2 SLP097 T02560017
KLAS 250556Z 20006KT 10SM CLR 26/02 A2989 RMK AO2 SLP097 T02610017 10328 20261 51012
KLAS 250456Z 23005KT 10SM CLR 28/03 A2988 RMK AO2 SLP094 T02780028

Radar Display
Forecast Discussion